Time;durP1;ratioP1;P1;durP2;ratioP2;P2;SDS_P1;SDS_P2;PMS_P1;PMS_P2;Temp;Humidity;BMP_temperature;BMP_pressure;BME280_temperature;BME280_humidity;BME280_pressure;Samples;Min_cycle;Max_cycle;Signal;HPM_P1;HPM_P2
2023/10/01 00:01:20;;;;;;;;;;;;;;;14.47;71.67;102014.63;4106672;28;20033;-73
2023/10/01 00:03:22;;;;;;;;;;;;;;;14.48;71.99;102013.63;4106780;28;20009;-73
2023/10/01 00:05:25;;;;;;;;;;;;;;;14.49;72.03;102006.31;4106393;28;20016;-73
2023/10/01 00:07:27;;;;;;;;;;;;;;;14.47;71.91;101997.50;4106530;28;20017;-73
2023/10/01 00:09:31;;;;;;;;;;;;;;;14.46;72.15;101995.78;4105357;28;20796;-73
2023/10/01 00:11:34;;;;;;;;;;;;;;;14.44;72.20;101997.84;4103208;28;20025;-73
2023/10/01 00:13:36;;;;;;;;;;;;;;;14.44;72.03;101993.25;4104316;28;20013;-73
2023/10/01 00:15:38;;;;;;;;;;;;;;;14.40;72.11;101997.31;4106467;28;20025;-73
2023/10/01 00:17:44;;;;;;;;;;;;;;;14.40;72.08;102000.91;4106673;28;20048;-73
2023/10/01 00:19:46;;;;;;;;;;;;;;;14.41;72.17;102005.28;4105913;28;21305;-73
2023/10/01 00:21:48;;;;;;;;;;;;;;;14.39;72.13;102001.06;4106146;28;20439;-73
2023/10/01 00:23:51;;;;;;;;;;;;;;;14.36;72.36;101996.81;4106038;28;20453;-73
2023/10/01 00:25:53;;;;;;;;;;;;;;;14.37;72.31;101993.09;4106177;28;20033;-73
2023/10/01 00:27:57;;;;;;;;;;;;;;;14.37;71.99;101989.50;4105830;28;20372;-73
2023/10/01 00:29:58;;;;;;;;;;;;;;;14.36;72.09;101988.66;4106198;28;20021;-73
2023/10/01 00:32:00;;;;;;;;;;;;;;;14.35;72.46;101989.66;4105211;28;20396;-73
2023/10/01 00:34:07;;;;;;;;;;;;;;;14.36;72.36;101985.94;4106276;28;20009;-73
2023/10/01 00:36:09;;;;;;;;;;;;;;;14.37;72.26;101989.50;4089264;28;20005;-73
2023/10/01 00:38:13;;;;;;;;;;;;;;;14.34;72.21;101988.00;4104742;28;20039;-73
2023/10/01 00:40:17;;;;;;;;;;;;;;;14.33;72.25;101989.00;4104218;28;20013;-73
2023/10/01 00:42:25;;;;;;;;;;;;;;;14.33;72.11;101980.84;4118374;28;20013;-73
2023/10/01 00:44:27;;;;;;;;;;;;;;;14.34;72.00;101976.25;4105005;28;20017;-73
2023/10/01 00:46:31;;;;;;;;;;;;;;;14.34;72.31;101977.13;4103589;28;20013;-73
2023/10/01 00:48:37;;;;;;;;;;;;;;;14.32;72.29;101978.31;4103070;28;19922;-73
2023/10/01 00:50:39;;;;;;;;;;;;;;;14.31;72.47;101977.47;4089163;28;20013;-73
2023/10/01 00:52:41;;;;;;;;;;;;;;;14.28;72.46;101969.66;4087595;29;20472;-73
2023/10/01 00:54:43;;;;;;;;;;;;;;;14.28;72.78;101972.38;4105715;28;20424;-73
2023/10/01 00:56:45;;;;;;;;;;;;;;;14.29;72.96;101973.22;4103179;28;20376;-73
2023/10/01 00:58:48;;;;;;;;;;;;;;;14.29;72.91;101967.78;4089158;28;20033;-73
2023/10/01 01:00:52;;;;;;;;;;;;;;;14.30;72.75;101964.03;4103788;28;20017;-73
2023/10/01 01:03:05;;;;;;;;;;;;;;;14.28;72.79;101976.94;4105314;28;19996;-73
2023/10/01 01:05:19;;;;;;;;;;;;;;;14.29;72.79;101973.22;4102524;28;20016;-73
2023/10/01 01:07:23;;;;;;;;;;;;;;;14.28;72.92;101983.25;4104856;28;20004;-73
2023/10/01 01:09:28;;;;;;;;;;;;;;;14.26;73.02;101982.53;4103245;28;20008;-73
2023/10/01 01:11:30;;;;;;;;;;;;;;;14.26;73.02;101977.09;4104689;28;20012;-73
2023/10/01 01:13:33;;;;;;;;;;;;;;;14.28;73.21;101982.38;4089853;28;20017;-73
2023/10/01 01:15:38;;;;;;;;;;;;;;;14.28;73.26;101969.66;4104289;28;20020;-73
2023/10/01 01:17:41;;;;;;;;;;;;;;;14.26;73.39;101959.97;4105565;28;20590;-74
2023/10/01 01:19:46;;;;;;;;;;;;;;;14.22;73.08;101957.59;4103597;28;20436;-73
2023/10/01 01:21:50;;;;;;;;;;;;;;;14.24;73.27;101951.97;4103753;28;20148;-73
2023/10/01 01:23:53;;;;;;;;;;;;;;;14.26;73.06;101955.38;4118569;28;20016;-73
2023/10/01 01:25:56;;;;;;;;;;;;;;;14.24;73.25;101944.66;4106246;28;20016;-73
2023/10/01 01:28:01;;;;;;;;;;;;;;;14.28;73.11;101950.63;4105857;28;19925;-73
2023/10/01 01:30:07;;;;;;;;;;;;;;;14.30;73.27;101953.19;4104201;28;20456;-73
2023/10/01 01:32:13;;;;;;;;;;;;;;;14.26;73.30;101946.38;4104245;28;20507;-73
2023/10/01 01:34:15;;;;;;;;;;;;;;;14.25;73.41;101948.25;4105920;28;20018;-72
2023/10/01 01:36:19;;;;;;;;;;;;;;;14.25;73.22;101945.53;4105179;28;20041;-74
2023/10/01 01:38:22;;;;;;;;;;;;;;;14.26;73.39;101957.25;4104225;28;20020;-72
2023/10/01 01:40:31;;;;;;;;;;;;;;;14.31;73.10;101952.13;4103231;28;20009;-72
2023/10/01 01:42:33;;;;;;;;;;;;;;;14.31;73.13;101954.84;4104489;28;20029;-74
2023/10/01 01:44:37;;;;;;;;;;;;;;;14.30;73.36;101956.72;4103294;28;20033;-74
2023/10/01 01:46:47;;;;;;;;;;;;;;;14.30;73.11;101950.47;4088275;28;20009;-72
2023/10/01 01:48:52;;;;;;;;;;;;;;;14.30;73.21;101954.00;4088157;28;20107;-72
2023/10/01 01:50:55;;;;;;;;;;;;;;;14.31;73.17;101957.56;4088687;28;20429;-75
2023/10/01 01:52:57;;;;;;;;;;;;;;;14.31;73.46;101955.72;4105710;28;20432;-74
2023/10/01 01:55:00;;;;;;;;;;;;;;;14.31;73.18;101955.72;4105990;28;20025;-74
2023/10/01 01:57:12;;;;;;;;;;;;;;;14.31;73.26;101953.00;4107239;28;20030;-75
2023/10/01 01:59:16;;;;;;;;;;;;;;;14.32;73.51;101951.13;4122490;28;20009;-75
2023/10/01 02:01:23;;;;;;;;;;;;;;;14.32;73.21;101945.69;4103662;28;20366;-74
2023/10/01 02:03:25;;;;;;;;;;;;;;;14.32;73.10;101934.81;4101368;28;19922;-75
2023/10/01 02:05:28;;;;;;;;;;;;;;;14.30;73.15;101932.28;4107188;28;20464;-75
2023/10/01 02:07:33;;;;;;;;;;;;;;;14.35;72.69;101945.34;4106076;28;20733;-75
2023/10/01 02:09:36;;;;;;;;;;;;;;;14.34;72.99;101938.19;4107580;28;20005;-75
2023/10/01 02:11:38;;;;;;;;;;;;;;;14.35;72.88;101943.47;4108334;28;20057;-75
2023/10/01 02:13:41;;;;;;;;;;;;;;;14.33;72.94;101945.53;4108123;28;20388;-74
2023/10/01 02:15:43;;;;;;;;;;;;;;;14.34;72.91;101946.34;4107857;28;20025;-74
2023/10/01 02:17:45;;;;;;;;;;;;;;;14.35;72.75;101948.91;4107749;28;20488;-74
2023/10/01 02:19:47;;;;;;;;;;;;;;;14.32;73.20;101940.25;4106236;28;20032;-74
2023/10/01 02:21:49;;;;;;;;;;;;;;;14.33;73.28;101931.94;4107797;28;20038;-75
2023/10/01 02:23:54;;;;;;;;;;;;;;;14.30;73.23;101928.72;4108397;28;20410;-74
2023/10/01 02:25:57;;;;;;;;;;;;;;;14.31;73.17;101933.97;4106912;28;20816;-75
2023/10/01 02:28:11;;;;;;;;;;;;;;;14.32;73.18;101937.53;4108033;28;20018;-75
2023/10/01 02:30:21;;;;;;;;;;;;;;;14.31;73.10;101938.53;4105384;28;20025;-75
2023/10/01 02:32:24;;;;;;;;;;;;;;;14.30;73.28;101932.28;4107932;28;20021;-74
2023/10/01 02:34:29;;;;;;;;;;;;;;;14.29;72.99;101932.44;4108019;28;20025;-74
2023/10/01 02:36:31;;;;;;;;;;;;;;;14.30;73.08;101929.56;4106850;28;20023;-75
2023/10/01 02:38:43;;;;;;;;;;;;;;;14.31;73.06;101928.53;4106484;28;20009;-75
2023/10/01 02:40:48;;;;;;;;;;;;;;;14.32;73.02;101924.78;4107496;28;20049;-75
2023/10/01 02:42:50;;;;;;;;;;;;;;;14.33;72.67;101920.22;4107559;28;20013;-74
2023/10/01 02:44:53;;;;;;;;;;;;;;;14.31;72.73;101912.25;4107414;28;20407;-75
2023/10/01 02:46:58;;;;;;;;;;;;;;;14.32;72.88;101910.34;4107677;28;20017;-75
2023/10/01 02:49:00;;;;;;;;;;;;;;;14.29;72.94;101908.81;4107570;28;20009;-74
2023/10/01 02:51:14;;;;;;;;;;;;;;;14.28;72.92;101904.44;4090303;28;20033;-75
2023/10/01 02:53:20;;;;;;;;;;;;;;;14.30;72.94;101904.25;4108207;28;20576;-75
2023/10/01 02:55:26;;;;;;;;;;;;;;;14.28;72.63;101909.00;4106838;28;20025;-73
2023/10/01 02:57:33;;;;;;;;;;;;;;;14.30;72.92;101904.25;4107407;28;20002;-75
2023/10/01 02:59:36;;;;;;;;;;;;;;;14.30;72.63;101899.66;4106903;28;20472;-74
2023/10/01 03:01:39;;;;;;;;;;;;;;;14.26;72.55;101900.19;4106907;28;20017;-74
2023/10/01 03:03:43;;;;;;;;;;;;;;;14.29;72.58;101895.25;4107046;28;20460;-74
2023/10/01 03:05:46;;;;;;;;;;;;;;;14.29;72.72;101897.97;4107325;28;20469;-75
2023/10/01 03:07:50;;;;;;;;;;;;;;;14.30;72.67;101902.38;4107136;28;20037;-73
2023/10/01 03:10:11;;;;;;;;;;;;;;;14.30;72.47;101902.38;4090231;28;20460;-75
2023/10/01 03:12:28;;;;;;;;;;;;;;;14.29;72.50;101899.84;4091084;28;20480;-74
2023/10/01 03:14:34;;;;;;;;;;;;;;;14.27;72.59;101894.56;4106383;28;20025;-74
2023/10/01 03:16:43;;;;;;;;;;;;;;;14.28;72.33;101904.44;4107880;28;20013;-74
2023/10/01 03:18:46;;;;;;;;;;;;;;;14.28;72.51;101892.69;4106463;28;20021;-73
2023/10/01 03:21:07;;;;;;;;;;;;;;;14.28;72.50;101898.13;4106015;28;20017;-74
2023/10/01 03:23:13;;;;;;;;;;;;;;;14.29;72.54;101906.09;4106113;28;20017;-74
2023/10/01 03:25:28;;;;;;;;;;;;;;;14.31;72.20;101906.81;4106701;28;20016;-75
2023/10/01 03:27:38;;;;;;;;;;;;;;;14.30;72.39;101907.81;4107628;28;20792;-74
2023/10/01 03:29:42;;;;;;;;;;;;;;;14.32;72.07;101910.34;4121040;28;19922;-73
2023/10/01 03:31:46;;;;;;;;;;;;;;;14.30;71.98;101902.38;4106562;28;20013;-74
2023/10/01 03:33:53;;;;;;;;;;;;;;;14.30;72.04;101905.09;4105242;28;20018;-74
2023/10/01 03:35:54;;;;;;;;;;;;;;;14.30;72.18;101910.53;4106882;28;20019;-74
2023/10/01 03:38:10;;;;;;;;;;;;;;;14.30;72.21;101905.09;4106428;28;19926;-75
2023/10/01 03:40:22;;;;;;;;;;;;;;;14.30;72.13;101909.69;4106904;28;20001;-73
2023/10/01 03:42:25;;;;;;;;;;;;;;;14.27;72.55;101904.59;4090942;28;20017;-73
2023/10/01 03:44:59;;;;;;;;;;;;;;;14.28;72.25;101909.88;4091051;28;20465;-73
2023/10/01 03:47:04;;;;;;;;;;;;;;;14.29;72.27;101911.53;4106900;28;20041;-73
2023/10/01 03:51:52;;;;;;;;;;;;;;;14.28;72.19;101930.75;4105154;28;20019;-73
2023/10/01 03:53:51;;;;;;;;;;;;;;;14.30;72.18;101920.56;4106666;28;20437;-72
2023/10/01 03:55:55;;;;;;;;;;;;;;;14.28;72.47;101926.16;4105945;28;20017;-72
2023/10/01 03:58:18;;;;;;;;;;;;;;;14.30;72.42;101909.69;4105342;28;20014;-73
2023/10/01 04:00:29;;;;;;;;;;;;;;;14.24;72.71;101916.66;4105953;28;20338;-74
2023/10/01 04:02:46;;;;;;;;;;;;;;;14.24;72.74;101903.06;4106136;28;20017;-74
2023/10/01 04:04:57;;;;;;;;;;;;;;;14.26;72.85;101911.06;4107043;28;20345;-74
2023/10/01 04:07:09;;;;;;;;;;;;;;;14.24;72.76;101892.19;4105820;28;20013;-74
2023/10/01 04:09:10;;;;;;;;;;;;;;;14.21;72.69;101897.97;4106284;28;20392;-73
2023/10/01 04:11:12;;;;;;;;;;;;;;;14.21;73.09;101900.69;4106254;28;19922;-73
2023/10/01 04:13:20;;;;;;;;;;;;;;;14.20;73.04;101893.56;4106413;28;20329;-74
2023/10/01 04:15:29;;;;;;;;;;;;;;;14.20;73.11;101916.16;4089728;28;20014;-73
2023/10/01 04:17:35;;;;;;;;;;;;;;;14.19;72.91;101905.47;4106183;28;20005;-73
2023/10/01 04:19:36;;;;;;;;;;;;;;;14.19;73.07;101902.75;4105205;28;20051;-73
2023/10/01 04:21:43;;;;;;;;;;;;;;;14.17;73.25;101881.19;4105348;28;20009;-73
2023/10/01 04:23:47;;;;;;;;;;;;;;;14.18;73.02;101887.47;4088460;29;20425;-73
2023/10/01 04:25:51;;;;;;;;;;;;;;;14.19;73.22;101891.88;4106183;28;20044;-74
2023/10/01 04:27:54;;;;;;;;;;;;;;;14.18;73.00;101891.00;4106222;28;20025;-73
2023/10/01 04:29:58;;;;;;;;;;;;;;;14.17;73.34;101888.47;4104234;28;20459;-73
2023/10/01 04:32:01;;;;;;;;;;;;;;;14.16;73.37;101901.22;4105841;28;20037;-73
2023/10/01 04:34:02;;;;;;;;;;;;;;;14.17;73.28;101899.34;4105604;28;20009;-73
2023/10/01 04:36:10;;;;;;;;;;;;;;;14.14;73.23;101902.44;4104895;28;20021;-73
2023/10/01 04:38:14;;;;;;;;;;;;;;;14.12;73.48;101902.59;4105755;28;20103;-74
2023/10/01 04:40:39;;;;;;;;;;;;;;;14.13;73.65;101903.44;4104404;28;20041;-74
2023/10/01 04:42:43;;;;;;;;;;;;;;;14.11;73.57;101900.06;4105291;28;20020;-74
2023/10/01 04:44:45;;;;;;;;;;;;;;;14.09;73.74;101894.78;4106194;28;20012;-74
2023/10/01 04:46:51;;;;;;;;;;;;;;;14.10;73.75;101903.78;4106161;28;20018;-74
2023/10/01 04:48:54;;;;;;;;;;;;;;;14.10;73.78;101910.06;4105272;28;20012;-74
2023/10/01 04:50:56;;;;;;;;;;;;;;;14.12;73.61;101915.31;4104270;28;20020;-73
2023/10/01 04:52:59;;;;;;;;;;;;;;;14.12;73.46;101910.75;4105795;28;20026;-74
2023/10/01 04:55:05;;;;;;;;;;;;;;;14.11;73.68;101909.03;4106079;28;20018;-74
2023/10/01 04:57:09;;;;;;;;;;;;;;;14.08;73.80;101908.53;4103732;28;20021;-71
2023/10/01 04:59:11;;;;;;;;;;;;;;;14.09;73.87;101908.38;4095640;28;20017;-73
2023/10/01 05:01:16;;;;;;;;;;;;;;;14.10;73.62;101906.50;4104206;28;20361;-73
2023/10/01 05:03:20;;;;;;;;;;;;;;;14.10;73.85;101909.22;4105751;28;20044;-73
2023/10/01 05:05:26;;;;;;;;;;;;;;;14.12;73.78;101912.59;4105033;28;20553;-73
2023/10/01 05:07:28;;;;;;;;;;;;;;;14.12;73.59;101915.31;4104588;28;20029;-73
2023/10/01 05:09:30;;;;;;;;;;;;;;;14.08;73.98;101912.09;4104567;28;20020;-70
2023/10/01 05:11:35;;;;;;;;;;;;;;;14.09;73.85;101916.53;4103456;28;20523;-71
2023/10/01 05:13:39;;;;;;;;;;;;;;;14.08;74.02;101922.97;4104479;28;20052;-71
2023/10/01 05:15:41;;;;;;;;;;;;;;;14.10;73.67;101918.19;4105807;28;20025;-72
2023/10/01 05:17:43;;;;;;;;;;;;;;;14.10;73.95;101911.94;4106221;28;20020;-72
2023/10/01 05:19:45;;;;;;;;;;;;;;;14.10;74.00;101920.09;4104895;28;20387;-71
2023/10/01 05:21:47;;;;;;;;;;;;;;;14.09;73.69;101915.66;4103884;28;20317;-71
2023/10/01 05:23:50;;;;;;;;;;;;;;;14.11;73.92;101919.06;4104764;28;19968;-70
2023/10/01 05:25:52;;;;;;;;;;;;;;;14.10;73.81;101920.91;4103147;28;20044;-70
2023/10/01 05:27:56;;;;;;;;;;;;;;;14.10;73.85;101912.75;4104712;28;20516;-72
2023/10/01 05:29:58;;;;;;;;;;;;;;;14.10;73.62;101917.38;4103333;28;20016;-72
2023/10/01 05:32:01;;;;;;;;;;;;;;;14.11;73.57;101914.47;4102650;28;19926;-73
2023/10/01 05:34:05;;;;;;;;;;;;;;;14.11;73.70;101917.19;4103409;28;20453;-72
2023/10/01 05:36:08;;;;;;;;;;;;;;;14.10;73.86;101912.75;4103986;28;20022;-72
2023/10/01 05:38:14;;;;;;;;;;;;;;;14.08;73.70;101913.97;4103521;28;20019;-72
2023/10/01 05:40:16;;;;;;;;;;;;;;;14.10;73.86;101920.09;4104068;28;20012;-71
2023/10/01 05:42:19;;;;;;;;;;;;;;;14.09;73.72;101913.81;4103880;28;20009;-71
2023/10/01 05:44:23;;;;;;;;;;;;;;;14.10;73.71;101917.38;4104457;28;20029;-73
2023/10/01 05:46:24;;;;;;;;;;;;;;;14.11;73.58;101919.91;4105513;28;20020;-72
2023/10/01 05:48:26;;;;;;;;;;;;;;;14.11;73.64;101922.63;4104209;28;20053;-73
2023/10/01 05:50:29;;;;;;;;;;;;;;;14.10;73.53;101920.09;4104674;28;20371;-72
2023/10/01 05:52:31;;;;;;;;;;;;;;;14.11;73.49;101927.22;4102217;28;19980;-72
2023/10/01 05:54:34;;;;;;;;;;;;;;;14.11;73.57;101917.19;4104268;28;20021;-77
2023/10/01 05:56:43;;;;;;;;;;;;;;;14.11;73.32;101928.06;4104652;28;20013;-75
2023/10/01 05:58:47;;;;;;;;;;;;;;;14.11;73.71;101927.22;4104544;28;20025;-74
2023/10/01 06:01:05;;;;;;;;;;;;;;;14.10;73.97;101918.19;4103127;28;20017;-74
2023/10/01 06:03:06;;;;;;;;;;;;;;;14.12;73.66;101909.88;4103457;28;20018;-74
2023/10/01 06:05:22;;;;;;;;;;;;;;;14.11;73.58;101900.91;4101390;28;20013;-73
2023/10/01 06:07:26;;;;;;;;;;;;;;;14.13;73.72;101906.16;4102850;28;20017;-73
2023/10/01 06:09:33;;;;;;;;;;;;;;;14.15;73.96;101896.81;4101240;28;20024;-74
2023/10/01 06:11:42;;;;;;;;;;;;;;;14.13;73.99;101887.97;4104207;28;20001;-74
2023/10/01 06:13:50;;;;;;;;;;;;;;;14.14;74.37;101899.72;4103820;28;19922;-72
2023/10/01 06:15:56;;;;;;;;;;;;;;;14.18;73.99;101903.75;4099620;28;20398;-71
2023/10/01 06:18:00;;;;;;;;;;;;;;;14.20;73.75;101894.44;4104143;28;20024;-73
2023/10/01 06:20:03;;;;;;;;;;;;;;;14.22;74.21;101899.69;4104016;28;20032;-73
2023/10/01 06:22:12;;;;;;;;;;;;;;;14.22;73.94;101899.69;4104160;28;20021;-73
2023/10/01 06:24:14;;;;;;;;;;;;;;;14.24;73.68;101903.91;4086137;28;20034;-72
2023/10/01 06:26:19;;;;;;;;;;;;;;;14.27;73.65;101905.44;4103513;28;20013;-73
2023/10/01 06:28:24;;;;;;;;;;;;;;;14.29;73.50;101899.84;4103095;28;20456;-75
2023/10/01 06:30:25;;;;;;;;;;;;;;;14.30;73.36;101905.09;4103333;28;20022;-73
2023/10/01 06:32:28;;;;;;;;;;;;;;;14.32;73.59;101897.63;4103927;28;19931;-74
2023/10/01 06:34:32;;;;;;;;;;;;;;;14.33;73.61;101898.47;4103276;28;20373;-73
2023/10/01 06:36:32;;;;;;;;;;;;;;;14.35;73.29;101902.69;4104823;28;20008;-74
2023/10/01 06:38:34;;;;;;;;;;;;;;;14.38;73.38;101901.50;4104767;28;19997;-73
2023/10/01 06:40:40;;;;;;;;;;;;;;;14.40;73.56;101899.47;4104462;28;20017;-73
2023/10/01 06:42:42;;;;;;;;;;;;;;;14.42;73.29;101898.28;4106652;28;20028;-72
2023/10/01 06:44:44;;;;;;;;;;;;;;;14.47;73.14;101905.06;4106213;28;19969;-72
2023/10/01 06:46:47;;;;;;;;;;;;;;;14.49;73.07;101900.31;4107109;28;20008;-73
2023/10/01 06:48:51;;;;;;;;;;;;;;;14.51;72.98;101906.41;4106302;28;20429;-73
2023/10/01 06:50:53;;;;;;;;;;;;;;;14.53;72.90;101897.06;4105855;28;20361;-72
2023/10/01 06:52:57;;;;;;;;;;;;;;;14.57;72.82;101894.81;4105780;28;20016;-72
2023/10/01 06:55:01;;;;;;;;;;;;;;;14.59;72.67;101893.63;4105834;28;20523;-75
2023/10/01 06:57:16;;;;;;;;;;;;;;;14.64;72.60;101889.56;4107071;28;20020;-72
2023/10/01 06:59:23;;;;;;;;;;;;;;;14.68;72.00;101888.19;4107298;28;20090;-72
2023/10/01 07:01:34;;;;;;;;;;;;;;;14.69;72.20;101892.63;4106599;28;20013;-71
2023/10/01 07:03:36;;;;;;;;;;;;;;;14.71;71.73;101890.56;4107447;28;20029;-71
2023/10/01 07:05:39;;;;;;;;;;;;;;;14.73;71.62;101894.81;4106314;28;20021;-72
2023/10/01 07:07:42;;;;;;;;;;;;;;;14.75;71.82;101898.19;4107421;28;20013;-74
2023/10/01 07:09:45;;;;;;;;;;;;;;;14.78;71.87;101903.28;4104627;28;20024;-72
2023/10/01 07:11:49;;;;;;;;;;;;;;;14.81;71.46;101901.22;4106096;28;20448;-74
2023/10/01 07:13:53;;;;;;;;;;;;;;;14.85;71.87;101908.84;4107073;28;20012;-74
2023/10/01 07:15:55;;;;;;;;;;;;;;;14.88;71.32;101907.66;4104791;28;19929;-72
2023/10/01 07:17:58;;;;;;;;;;;;;;;14.90;71.35;101909.16;4106935;28;20021;-72
2023/10/01 07:19:59;;;;;;;;;;;;;;;14.95;71.13;101912.22;4105183;28;20025;-74
2023/10/01 07:22:06;;;;;;;;;;;;;;;14.99;71.26;101915.44;4105794;28;19930;-73
2023/10/01 07:24:10;;;;;;;;;;;;;;;15.01;70.90;101910.66;4105952;28;20040;-72
2023/10/01 07:26:12;;;;;;;;;;;;;;;15.03;70.78;101914.06;4106320;28;20501;-72
2023/10/01 07:28:18;;;;;;;;;;;;;;;15.07;70.40;101918.09;4106224;28;20010;-73
2023/10/01 07:30:39;;;;;;;;;;;;;;;15.10;70.41;101906.84;4106594;28;20022;-72
2023/10/01 07:32:41;;;;;;;;;;;;;;;15.12;70.16;101920.28;4106261;28;20388;-71
2023/10/01 07:34:48;;;;;;;;;;;;;;;15.14;70.10;101919.09;4105962;28;20024;-70
2023/10/01 07:36:54;;;;;;;;;;;;;;;15.19;70.02;101920.41;4105981;28;19927;-71
2023/10/01 07:39:04;;;;;;;;;;;;;;;15.21;69.98;101913.78;4106383;28;20066;-72
2023/10/01 07:41:16;;;;;;;;;;;;;;;15.25;70.20;101919.69;4106380;28;19926;-72
2023/10/01 07:43:18;;;;;;;;;;;;;;;15.28;69.40;101917.47;4108588;28;19956;-70
2023/10/01 07:45:20;;;;;;;;;;;;;;;15.31;69.53;101927.16;4106789;28;20009;-71
2023/10/01 07:47:32;;;;;;;;;;;;;;;15.34;69.30;101932.22;4108140;28;20024;-72
2023/10/01 07:49:48;;;;;;;;;;;;;;;15.38;69.25;101930.03;4107071;28;20021;-71
2023/10/01 07:51:50;;;;;;;;;;;;;;;15.41;69.28;101929.66;4105465;28;20021;-71
2023/10/01 07:53:53;;;;;;;;;;;;;;;15.45;69.26;101933.69;4103786;28;20022;-69
2023/10/01 07:56:01;;;;;;;;;;;;;;;15.49;69.19;101935.88;4104589;28;20341;-73
2023/10/01 07:58:23;;;;;;;;;;;;;;;15.53;69.02;101933.63;4106773;28;19930;-72
2023/10/01 08:00:29;;;;;;;;;;;;;;;15.59;68.82;101929.34;4105309;28;20020;-74
2023/10/01 08:03:27;;;;;;;;;;;;;;;15.64;68.28;101929.66;4103167;28;20020;-73
2023/10/01 08:05:08;;;;;;;;;;;;;;;15.68;68.12;101920.94;4105266;28;20016;-72
2023/10/01 08:07:17;;;;;;;;;;;;;;;15.73;67.87;101923.13;4106103;28;20024;-72
2023/10/01 08:09:21;;;;;;;;;;;;;;;15.78;67.57;101926.19;4104685;28;20028;-71
2023/10/01 08:13:58;;;;;;;;;;;;;;;15.88;67.51;101912.31;4106105;28;19973;-73
2023/10/01 08:16:01;;;;;;;;;;;;;;;15.92;67.17;101921.78;4105954;28;20040;-73
2023/10/01 08:20:21;;;;;;;;;;;;;;;15.99;65.92;101902.84;4102463;28;20728;-72
2023/10/01 08:22:23;;;;;;;;;;;;;;;16.00;65.60;101913.56;4099936;28;20359;-72
2023/10/01 08:24:33;;;;;;;;;;;;;;;16.01;65.48;101909.78;4100867;28;20021;-74
2023/10/01 08:26:43;;;;;;;;;;;;;;;16.04;65.06;101914.03;4105318;28;19922;-73
2023/10/01 08:28:44;;;;;;;;;;;;;;;16.06;65.44;101908.41;4107481;28;20008;-75
2023/10/01 08:30:46;;;;;;;;;;;;;;;16.08;65.83;101909.06;4106409;28;20400;-73
2023/10/01 08:32:49;;;;;;;;;;;;;;;16.10;65.80;101912.47;4089559;28;20014;-74
2023/10/01 08:37:07;;;;;;;;;;;;;;;16.12;65.11;101921.28;4103612;28;20017;-74
2023/10/01 08:39:22;;;;;;;;;;;;;;;16.14;64.82;101921.94;4105804;28;19953;-72
2023/10/01 08:41:32;;;;;;;;;;;;;;;16.15;65.06;101920.91;4104364;28;20207;-74
2023/10/01 08:43:35;;;;;;;;;;;;;;;16.16;64.92;101922.59;4105698;28;20033;-71
2023/10/01 08:45:38;;;;;;;;;;;;;;;16.17;65.25;101925.13;4105369;28;20033;-71
2023/10/01 08:47:45;;;;;;;;;;;;;;;16.20;65.23;101934.81;4106235;28;20013;-71
2023/10/01 08:49:50;;;;;;;;;;;;;;;16.21;64.80;101933.81;4104602;28;20460;-71
2023/10/01 08:51:54;;;;;;;;;;;;;;;16.21;64.38;101929.19;4105250;28;19940;-73
2023/10/01 08:53:57;;;;;;;;;;;;;;;16.23;64.58;101936.34;4106921;28;20009;-70
2023/10/01 08:56:05;;;;;;;;;;;;;;;16.26;64.59;101927.81;4105461;28;20029;-72
2023/10/01 08:58:25;;;;;;;;;;;;;;;16.26;64.57;101927.81;4106428;28;20030;-71
2023/10/01 09:00:28;;;;;;;;;;;;;;;16.29;64.78;101935.59;4088288;28;19926;-74
2023/10/01 09:02:32;;;;;;;;;;;;;;;16.29;64.62;101932.88;4106020;28;20013;-71
2023/10/01 09:04:45;;;;;;;;;;;;;;;16.30;64.79;101932.69;4104923;28;20028;-72
2023/10/01 09:06:58;;;;;;;;;;;;;;;16.33;64.54;101936.91;4104510;28;20018;-72
2023/10/01 09:09:19;;;;;;;;;;;;;;;16.34;64.61;101946.78;4103292;28;20053;-72
2023/10/01 09:11:32;;;;;;;;;;;;;;;16.34;64.31;101928.53;4103815;28;20366;-72
2023/10/01 09:13:34;;;;;;;;;;;;;;;16.36;64.59;101929.22;4104649;28;20420;-71
2023/10/01 09:15:43;;;;;;;;;;;;;;;16.38;64.65;101927.16;4105054;28;20012;-71
2023/10/01 09:17:56;;;;;;;;;;;;;;;16.38;64.53;101935.34;4105039;28;20021;-71
2023/10/01 09:20:06;;;;;;;;;;;;;;;16.40;64.45;101926.97;4103459;28;20041;-72
2023/10/01 09:22:09;;;;;;;;;;;;;;;16.43;64.54;101912.97;4103813;28;20025;-72
2023/10/01 09:24:34;;;;;;;;;;;;;;;16.44;64.86;101917.38;4102420;28;20370;-73
2023/10/01 09:26:39;;;;;;;;;;;;;;;16.45;64.68;101915.50;4102409;28;20042;-73
2023/10/01 09:28:42;;;;;;;;;;;;;;;16.46;64.63;101928.09;4105354;28;20399;-74
2023/10/01 09:31:01;;;;;;;;;;;;;;;16.47;64.50;101930.63;4102092;28;20020;-71
2023/10/01 09:33:14;;;;;;;;;;;;;;;16.49;64.36;101920.41;4104204;28;20013;-71
2023/10/01 09:35:30;;;;;;;;;;;;;;;16.52;64.40;101927.34;4104499;28;20369;-71
2023/10/01 09:37:34;;;;;;;;;;;;;;;16.52;64.42;101928.19;4104037;28;20372;-71
2023/10/01 09:39:36;;;;;;;;;;;;;;;16.56;64.47;101918.59;4105766;28;20009;-71
2023/10/01 09:41:40;;;;;;;;;;;;;;;16.56;64.17;101917.75;4099401;28;20026;-72
2023/10/01 09:43:42;;;;;;;;;;;;;;;16.60;64.37;101918.22;4100521;28;19974;-73
2023/10/01 09:45:46;;;;;;;;;;;;;;;16.61;64.17;101911.72;4104236;28;20033;-74
2023/10/01 09:47:56;;;;;;;;;;;;;;;16.63;64.16;101913.25;4102717;28;20025;-73
2023/10/01 09:49:59;;;;;;;;;;;;;;;16.65;64.11;101905.72;4103446;28;20021;-74
2023/10/01 09:52:01;;;;;;;;;;;;;;;16.67;63.73;101902.78;4103094;28;20016;-73
2023/10/01 09:54:04;;;;;;;;;;;;;;;16.71;63.63;101891.31;4101353;28;20360;-72
2023/10/01 09:56:05;;;;;;;;;;;;;;;16.74;63.55;101890.09;4100842;28;20025;-74
2023/10/01 09:58:10;;;;;;;;;;;;;;;16.77;63.66;101892.47;4102982;28;19930;-72
2023/10/01 10:00:22;;;;;;;;;;;;;;;16.79;63.59;101897.72;4087056;29;20009;-71
2023/10/01 10:02:28;;;;;;;;;;;;;;;16.83;63.47;101902.56;4101581;28;20021;-72
2023/10/01 10:04:34;;;;;;;;;;;;;;;16.87;63.47;101906.66;4104869;28;19937;-71
2023/10/01 10:06:38;;;;;;;;;;;;;;;16.91;63.07;101898.94;4097359;28;20018;-70
2023/10/01 10:08:39;;;;;;;;;;;;;;;16.95;63.27;101897.53;4099765;28;20065;-72
2023/10/01 10:10:48;;;;;;;;;;;;;;;16.99;63.01;101895.25;4103269;28;20021;-73
2023/10/01 10:12:53;;;;;;;;;;;;;;;17.03;62.60;101891.94;4100769;28;20352;-70
2023/10/01 10:14:58;;;;;;;;;;;;;;;17.06;62.65;101890.72;4100826;28;20029;-71
2023/10/01 10:17:18;;;;;;;;;;;;;;;17.09;62.76;101896.63;4105120;28;20029;-72
2023/10/01 10:19:21;;;;;;;;;;;;;;;17.15;62.81;101910.56;4105627;28;20012;-71
2023/10/01 10:21:36;;;;;;;;;;;;;;;17.18;62.23;101894.66;4105384;28;20030;-71
2023/10/01 10:23:51;;;;;;;;;;;;;;;17.24;62.52;101904.81;4104298;28;20009;-71
2023/10/01 10:25:56;;;;;;;;;;;;;;;17.29;62.60;101912.41;4106832;28;19977;-71
2023/10/01 10:28:04;;;;;;;;;;;;;;;17.38;61.08;101910.41;4106410;28;20013;-71
2023/10/01 10:30:14;;;;;;;;;;;;;;;17.42;60.56;101909.81;4107995;28;20018;-71
2023/10/01 10:32:24;;;;;;;;;;;;;;;17.49;60.43;101912.59;4102911;28;20374;-71
2023/10/01 10:34:25;;;;;;;;;;;;;;;17.51;61.63;101913.28;4107055;28;20089;-70
2023/10/01 10:36:36;;;;;;;;;;;;;;;17.56;61.88;101913.53;4104370;28;19998;-74
2023/10/01 10:38:51;;;;;;;;;;;;;;;17.64;61.55;101912.56;4104715;28;20021;-70
2023/10/01 10:41:05;;;;;;;;;;;;;;;17.70;60.56;101900.84;4105448;28;19996;-75
2023/10/01 10:43:18;;;;;;;;;;;;;;;17.75;61.37;101911.19;4105894;28;20029;-76
2023/10/01 10:45:23;;;;;;;;;;;;;;;17.80;60.55;101903.25;4104348;28;20037;-75
2023/10/01 10:47:24;;;;;;;;;;;;;;;17.84;60.80;101916.31;4105350;28;19958;-70
2023/10/01 10:49:42;;;;;;;;;;;;;;;17.88;60.91;101903.13;4105230;28;20029;-74
2023/10/01 10:51:52;;;;;;;;;;;;;;;17.93;61.01;101900.66;4102800;28;20056;-74
2023/10/01 10:54:00;;;;;;;;;;;;;;;17.97;60.08;101892.91;4103694;28;20022;-73
2023/10/01 10:56:02;;;;;;;;;;;;;;;18.02;60.27;101895.88;4103574;28;20048;-72